createdAt,value
2023-03-06T00:00:41.736Z,57.86
2023-03-06T00:03:08.687Z,57.64
2023-03-06T00:05:35.473Z,57.44
2023-03-06T00:08:02.460Z,57.47
2023-03-06T00:10:31.002Z,57.67
2023-03-06T00:13:00.438Z,57.76
2023-03-06T00:15:27.855Z,57.66
2023-03-06T00:17:54.790Z,57.83
2023-03-06T00:20:22.094Z,58.07
2023-03-06T00:22:49.943Z,57.95
2023-03-06T00:25:19.859Z,57.78
2023-03-06T00:27:47.324Z,57.70
2023-03-06T00:30:17.524Z,57.82
2023-03-06T00:32:44.701Z,57.97
2023-03-06T00:35:12.594Z,57.92
2023-03-06T00:37:40.266Z,57.72
2023-03-06T00:40:10.290Z,57.82
2023-03-06T00:42:37.062Z,57.70
2023-03-06T00:45:04.171Z,57.71
2023-03-06T00:47:30.934Z,57.59
2023-03-06T00:49:57.717Z,57.77
2023-03-06T00:52:24.532Z,57.84
2023-03-06T00:54:51.368Z,58.00
2023-03-06T00:57:18.285Z,57.93
2023-03-06T00:59:46.118Z,58.18
2023-03-06T01:02:13.154Z,58.00
2023-03-06T01:04:40.235Z,58.02
2023-03-06T01:07:06.955Z,58.00
2023-03-06T01:09:33.704Z,58.05
2023-03-06T01:12:00.489Z,58.18
2023-03-06T01:14:27.948Z,58.29
2023-03-06T01:16:54.703Z,58.33
2023-03-06T01:19:21.807Z,58.11
2023-03-06T01:21:48.592Z,58.13
2023-03-06T01:24:15.340Z,58.12
2023-03-06T01:26:42.274Z,58.24
2023-03-06T01:29:09.080Z,58.08
2023-03-06T01:31:36.054Z,58.37
2023-03-06T01:34:03.052Z,58.31
2023-03-06T01:36:29.837Z,58.32
2023-03-06T01:38:56.562Z,58.54
2023-03-06T01:41:23.375Z,58.26
2023-03-06T01:43:50.224Z,58.28
2023-03-06T01:46:21.663Z,58.27
2023-03-06T01:48:52.356Z,58.33
2023-03-06T01:51:19.385Z,58.46
2023-03-06T01:53:48.373Z,58.31
2023-03-06T01:56:15.859Z,58.40
2023-03-06T01:58:43.949Z,58.23
2023-03-06T02:01:13.112Z,58.22
2023-03-06T02:03:41.392Z,58.68
2023-03-06T02:06:08.322Z,58.60
2023-03-06T02:08:35.224Z,58.36
2023-03-06T02:11:08.152Z,58.59
2023-03-06T02:13:36.339Z,58.60
2023-03-06T02:16:03.187Z,58.57
2023-03-06T02:18:30.510Z,58.69
2023-03-06T02:21:00.783Z,58.79
2023-03-06T02:23:56.502Z,58.74
2023-03-06T02:26:24.566Z,58.67
2023-03-06T02:28:51.327Z,58.39
2023-03-06T02:31:28.780Z,58.68
2023-03-06T02:34:13.942Z,58.71
2023-03-06T02:37:00.856Z,58.85
2023-03-06T02:39:32.167Z,58.90
2023-03-06T02:41:58.986Z,59.00
2023-03-06T02:44:28.069Z,58.97
2023-03-06T02:46:54.864Z,58.68
2023-03-06T02:49:21.646Z,58.75
2023-03-06T02:51:48.385Z,58.98
2023-03-06T02:54:18.305Z,58.93
2023-03-06T02:56:45.922Z,58.86
2023-03-06T02:59:12.893Z,58.78
2023-03-06T03:01:39.680Z,58.99
2023-03-06T03:04:06.477Z,59.04
2023-03-06T03:06:33.251Z,59.11
2023-03-06T03:09:00.026Z,59.17
2023-03-06T03:11:26.762Z,58.99
2023-03-06T03:13:53.507Z,59.13
2023-03-06T03:16:20.339Z,59.04
2023-03-06T03:18:51.114Z,59.04
2023-03-06T03:21:18.234Z,59.14
2023-03-06T03:23:45.114Z,59.13
2023-03-06T03:26:18.755Z,59.05
2023-03-06T03:28:45.961Z,58.97
2023-03-06T03:31:14.059Z,59.08
2023-03-06T03:33:41.521Z,59.01
2023-03-06T03:36:08.784Z,58.87
2023-03-06T03:38:36.358Z,59.11
2023-03-06T03:41:04.018Z,58.97
2023-03-06T03:43:31.139Z,59.09
2023-03-06T03:45:57.855Z,59.06
2023-03-06T03:48:24.602Z,59.22
2023-03-06T03:50:51.755Z,59.09
2023-03-06T03:53:18.543Z,59.27
2023-03-06T03:55:48.001Z,59.20
2023-03-06T03:58:14.776Z,59.31
2023-03-06T04:00:41.515Z,59.38
2023-03-06T04:03:08.256Z,59.40
2023-03-06T04:05:35.089Z,59.42
2023-03-06T04:08:03.311Z,59.48
2023-03-06T04:10:30.196Z,59.46
2023-03-06T04:12:57.401Z,59.46
2023-03-06T04:15:24.155Z,59.51
2023-03-06T04:17:50.901Z,59.62
2023-03-06T04:20:18.279Z,59.53
2023-03-06T04:22:45.110Z,59.62
2023-03-06T04:25:11.889Z,59.64
2023-03-06T04:27:38.662Z,59.48
2023-03-06T04:30:07.052Z,59.38
2023-03-06T04:32:33.998Z,59.29
2023-03-06T04:35:00.830Z,59.44
2023-03-06T04:37:27.785Z,59.45
2023-03-06T04:39:54.521Z,59.50
2023-03-06T04:42:21.412Z,59.50
2023-03-06T04:44:48.225Z,59.47
2023-03-06T04:47:15.152Z,59.45
2023-03-06T04:49:42.352Z,59.57
2023-03-06T04:52:09.238Z,59.42
2023-03-06T04:54:36.054Z,59.44
2023-03-06T04:57:02.941Z,59.29
2023-03-06T04:59:29.705Z,59.33
2023-03-06T05:01:56.596Z,59.36
2023-03-06T05:04:23.380Z,59.33
2023-03-06T05:06:50.196Z,59.46
2023-03-06T05:09:17.048Z,59.42
2023-03-06T05:11:43.805Z,59.44
2023-03-06T05:14:10.598Z,59.71
2023-03-06T05:16:37.435Z,59.44
2023-03-06T05:19:04.284Z,59.62
2023-03-06T05:21:31.023Z,59.59
2023-03-06T05:23:57.858Z,59.72
2023-03-06T05:26:24.666Z,59.62
2023-03-06T05:28:51.447Z,59.82
2023-03-06T05:31:18.545Z,59.70
2023-03-06T05:33:45.376Z,59.61
2023-03-06T05:36:12.377Z,59.45
2023-03-06T05:38:39.138Z,59.48
2023-03-06T05:41:05.925Z,59.39
2023-03-06T05:43:32.656Z,59.59
2023-03-06T05:46:05.267Z,59.37
2023-03-06T05:48:32.817Z,59.48
2023-03-06T05:51:01.197Z,59.47
2023-03-06T05:53:29.344Z,59.43
2023-03-06T05:56:01.101Z,59.44
2023-03-06T05:58:29.478Z,59.60
2023-03-06T06:00:57.017Z,59.40
2023-03-06T06:03:24.527Z,59.40
2023-03-06T06:05:52.606Z,59.35
2023-03-06T06:08:20.971Z,59.24
2023-03-06T06:10:47.753Z,59.28
2023-03-06T06:13:14.606Z,59.16
2023-03-06T06:15:41.518Z,59.26
2023-03-06T06:18:08.380Z,59.20
2023-03-06T06:20:37.519Z,59.17
2023-03-06T06:23:05.049Z,59.11
2023-03-06T06:25:32.740Z,59.10
2023-03-06T06:27:59.563Z,59.01
2023-03-06T06:30:26.295Z,59.24
2023-03-06T06:32:53.024Z,59.04
2023-03-06T06:35:19.942Z,59.04
2023-03-06T06:37:46.753Z,59.06
2023-03-06T06:40:13.839Z,59.17
2023-03-06T06:42:40.849Z,59.03
2023-03-06T06:45:10.135Z,58.93
2023-03-06T06:47:41.708Z,58.96
2023-03-06T06:50:12.826Z,58.85
2023-03-06T06:52:40.467Z,58.70
2023-03-06T06:55:07.769Z,58.74
2023-03-06T06:57:34.497Z,58.70
2023-03-06T07:00:01.291Z,58.60
2023-03-06T07:02:28.153Z,58.61
2023-03-06T07:05:04.151Z,58.46
2023-03-06T07:07:37.315Z,58.54
2023-03-06T07:10:11.932Z,58.41
2023-03-06T07:12:38.721Z,58.49
2023-03-06T07:15:07.167Z,58.43
2023-03-06T07:17:34.191Z,58.25
2023-03-06T07:20:00.982Z,58.27
2023-03-06T07:22:30.333Z,58.25
2023-03-06T07:25:01.738Z,58.20
2023-03-06T07:27:28.517Z,58.10
2023-03-06T07:29:55.264Z,57.99
2023-03-06T07:32:22.127Z,58.00
2023-03-06T07:34:48.952Z,57.94
2023-03-06T07:37:15.737Z,57.90
2023-03-06T07:39:43.140Z,57.87
2023-03-06T07:42:13.052Z,57.84
2023-03-06T07:44:40.075Z,57.76
2023-03-06T07:47:07.474Z,57.71
2023-03-06T07:49:34.928Z,57.63
2023-03-06T07:52:02.234Z,57.54
2023-03-06T07:54:30.781Z,57.58
2023-03-06T07:56:57.565Z,57.34
2023-03-06T07:59:24.750Z,57.38
2023-03-06T08:01:53.696Z,57.29
2023-03-06T08:04:20.499Z,57.26
2023-03-06T08:06:47.280Z,57.13
2023-03-06T08:09:14.025Z,56.93
2023-03-06T08:11:40.760Z,56.85
2023-03-06T08:14:07.493Z,56.76
2023-03-06T08:16:34.338Z,56.77
2023-03-06T08:19:01.084Z,56.72
2023-03-06T08:21:29.180Z,56.68
2023-03-06T08:23:56.018Z,56.61
2023-03-06T08:26:25.905Z,56.56
2023-03-06T08:28:54.680Z,56.54
2023-03-06T08:31:27.421Z,56.55
2023-03-06T08:33:55.592Z,56.44
2023-03-06T08:36:23.920Z,56.30
2023-03-06T08:38:51.330Z,56.19
2023-03-06T08:41:19.089Z,56.03
2023-03-06T08:43:47.027Z,55.97
2023-03-06T08:46:13.891Z,55.87
2023-03-06T08:48:40.765Z,55.76
2023-03-06T08:51:11.243Z,55.71
2023-03-06T08:53:43.418Z,55.66
2023-03-06T08:56:28.580Z,55.59
2023-03-06T08:58:56.811Z,55.60
2023-03-06T09:01:35.209Z,55.57
2023-03-06T09:04:06.058Z,55.50
2023-03-06T09:06:35.482Z,55.45
2023-03-06T09:09:03.233Z,55.38
2023-03-06T09:11:30.571Z,55.38
2023-03-06T09:13:57.643Z,55.31
2023-03-06T09:16:25.141Z,55.33
2023-03-06T09:18:54.050Z,55.34
2023-03-06T09:21:22.229Z,55.18
2023-03-06T09:23:49.296Z,55.21
2023-03-06T09:26:16.128Z,55.05
2023-03-06T09:28:43.114Z,55.14
2023-03-06T09:31:12.411Z,55.03
2023-03-06T09:33:39.807Z,55.05
2023-03-06T09:36:19.049Z,55.06
2023-03-06T09:38:48.352Z,55.07
2023-03-06T09:41:27.115Z,55.07
2023-03-06T09:44:04.745Z,55.01
2023-03-06T09:47:15.962Z,54.95
2023-03-06T09:49:48.746Z,54.95
2023-03-06T09:52:36.351Z,54.98
2023-03-06T09:55:29.687Z,54.86
2023-03-06T09:58:02.826Z,54.91
2023-03-06T10:00:32.438Z,54.89
2023-03-06T10:03:05.054Z,54.84
2023-03-06T10:06:09.625Z,54.90
2023-03-06T10:08:54.349Z,54.80
2023-03-06T10:11:41.854Z,54.82
2023-03-06T10:14:23.779Z,54.83
2023-03-06T10:16:50.619Z,54.87
2023-03-06T10:19:20.137Z,54.75
2023-03-06T10:22:17.699Z,54.82
2023-03-06T10:25:01.541Z,54.78
2023-03-06T10:27:31.728Z,54.82
2023-03-06T10:30:24.074Z,54.88
2023-03-06T10:32:59.277Z,54.84
2023-03-06T10:35:33.227Z,54.82
2023-03-06T10:38:27.065Z,54.88
2023-03-06T10:41:22.583Z,54.82
2023-03-06T10:44:01.499Z,54.62
2023-03-06T10:46:37.341Z,54.78
2023-03-06T10:49:09.201Z,54.74
2023-03-06T10:51:36.067Z,54.68
2023-03-06T10:54:18.876Z,54.67
2023-03-06T10:56:47.448Z,54.60
2023-03-06T10:59:20.458Z,54.64
2023-03-06T11:01:50.336Z,54.66
2023-03-06T11:04:35.640Z,54.66
2023-03-06T11:07:19.662Z,54.63
2023-03-06T11:09:48.117Z,54.65
2023-03-06T11:12:23.287Z,54.67
2023-03-06T11:15:09.219Z,54.62
2023-03-06T11:17:46.788Z,54.63
2023-03-06T11:20:18.401Z,54.59
2023-03-06T11:23:03.363Z,54.44
2023-03-06T11:25:53.927Z,54.32
2023-03-06T11:28:26.006Z,54.25
2023-03-06T11:30:59.678Z,54.25
2023-03-06T11:33:48.704Z,54.23
2023-03-06T11:36:36.030Z,54.22
2023-03-06T11:39:14.535Z,54.17
2023-03-06T11:41:57.633Z,54.25
2023-03-06T11:44:43.510Z,54.33
2023-03-06T11:47:35.028Z,54.41
2023-03-06T11:50:10.884Z,54.44
2023-03-06T11:52:47.651Z,54.49
2023-03-06T11:55:24.458Z,54.42
2023-03-06T11:58:20.244Z,54.54
2023-03-06T12:01:01.546Z,54.52
2023-03-06T12:03:57.926Z,54.55
2023-03-06T12:06:33.672Z,54.41
2023-03-06T12:09:12.509Z,54.36
2023-03-06T12:12:07.323Z,54.04
2023-03-06T12:14:42.834Z,53.98
2023-03-06T12:17:21.465Z,53.98
2023-03-06T12:20:20.406Z,54.05
2023-03-06T12:23:14.589Z,53.94
2023-03-06T12:25:45.160Z,53.84
2023-03-06T12:28:30.495Z,53.83
2023-03-06T12:31:18.735Z,53.98
2023-03-06T12:34:14.222Z,53.94
2023-03-06T12:36:43.944Z,54.19
2023-03-06T12:39:23.248Z,54.29
2023-03-06T12:42:22.634Z,54.22
2023-03-06T12:44:52.918Z,54.36
2023-03-06T12:47:25.552Z,54.35
2023-03-06T12:50:01.266Z,54.32
2023-03-06T12:52:31.502Z,54.44
2023-03-06T12:55:05.899Z,54.35
2023-03-06T12:57:32.749Z,54.31
2023-03-06T12:59:59.595Z,54.39
2023-03-06T13:02:53.698Z,54.25
2023-03-06T13:05:29.319Z,54.10
2023-03-06T13:08:34.720Z,54.15
2023-03-06T13:11:27.342Z,54.13
2023-03-06T13:13:54.973Z,54.13
2023-03-06T13:16:31.856Z,54.08
2023-03-06T13:19:11.399Z,54.18
2023-03-06T13:21:41.287Z,54.07
2023-03-06T13:24:21.471Z,54.03
2023-03-06T13:26:48.154Z,54.13
2023-03-06T13:29:40.985Z,54.23
2023-03-06T13:32:18.765Z,54.21
2023-03-06T13:34:50.104Z,54.24
2023-03-06T13:37:16.811Z,54.19
2023-03-06T13:39:52.399Z,54.29
2023-03-06T13:42:29.331Z,54.29
2023-03-06T13:45:08.467Z,54.28
2023-03-06T13:48:33.928Z,54.26
2023-03-06T13:50:47.690Z,54.33
2023-03-06T13:53:32.898Z,54.37
2023-03-06T13:55:59.601Z,54.24
2023-03-06T13:58:50.605Z,54.09
2023-03-06T14:01:17.395Z,54.09
2023-03-06T14:03:59.508Z,54.15
2023-03-06T14:06:35.105Z,54.19
2023-03-06T14:09:11.902Z,54.02
2023-03-06T14:11:45.944Z,53.91
2023-03-06T14:14:13.117Z,53.93
2023-03-06T14:16:49.852Z,54.05
2023-03-06T14:19:19.484Z,54.11
2023-03-06T14:21:57.422Z,54.04
2023-03-06T14:24:37.074Z,54.04
2023-03-06T14:27:04.661Z,53.99
2023-03-06T14:29:33.179Z,54.10
2023-03-06T14:32:01.465Z,54.19
2023-03-06T14:34:32.333Z,54.13
2023-03-06T14:37:02.853Z,54.09
2023-03-06T14:39:43.224Z,54.09
2023-03-06T14:42:22.096Z,54.11
2023-03-06T14:45:00.915Z,54.11
2023-03-06T14:47:30.976Z,54.02
2023-03-06T14:50:27.235Z,53.97
2023-03-06T14:53:05.219Z,53.90
2023-03-06T14:55:34.990Z,53.93
2023-03-06T14:58:16.234Z,54.03
2023-03-06T15:00:46.904Z,54.08
2023-03-06T15:03:19.675Z,53.98
2023-03-06T15:05:47.624Z,54.03
2023-03-06T15:08:19.494Z,54.15
2023-03-06T15:11:06.218Z,54.31
2023-03-06T15:13:34.615Z,54.31
2023-03-06T15:16:21.604Z,54.27
2023-03-06T15:18:59.892Z,54.34
2023-03-06T15:21:29.570Z,54.37
2023-03-06T15:23:57.460Z,54.32
2023-03-06T15:26:34.201Z,54.24
2023-03-06T15:29:22.019Z,54.30
2023-03-06T15:31:49.236Z,54.36
2023-03-06T15:34:24.536Z,54.47
2023-03-06T15:36:54.419Z,54.42
2023-03-06T15:39:33.130Z,54.38
2023-03-06T15:42:38.480Z,54.52
2023-03-06T15:45:18.118Z,54.55
2023-03-06T15:47:46.162Z,54.83
2023-03-06T15:50:24.606Z,54.98
2023-03-06T15:52:51.740Z,54.99
2023-03-06T15:55:24.211Z,55.11
2023-03-06T15:57:55.546Z,55.13
2023-03-06T16:00:28.697Z,55.23
2023-03-06T16:02:59.154Z,55.24
2023-03-06T16:05:27.789Z,55.31
2023-03-06T16:07:55.178Z,55.37
2023-03-06T16:10:25.062Z,55.41
2023-03-06T16:12:56.758Z,55.44
2023-03-06T16:15:29.848Z,55.52
2023-03-06T16:17:57.666Z,55.49
2023-03-06T16:20:26.930Z,55.61
2023-03-06T16:22:54.833Z,55.65
2023-03-06T16:25:24.026Z,55.60
2023-03-06T16:27:59.607Z,55.65
2023-03-06T16:30:29.742Z,55.76
2023-03-06T16:32:57.554Z,55.76
2023-03-06T16:35:24.996Z,55.78
2023-03-06T16:37:52.417Z,55.88
2023-03-06T16:40:23.317Z,55.88
2023-03-06T16:42:50.829Z,55.94
2023-03-06T16:45:20.229Z,55.95
2023-03-06T16:47:48.203Z,55.90
2023-03-06T16:50:34.142Z,56.01
2023-03-06T16:53:01.304Z,56.01
2023-03-06T16:55:28.518Z,55.97
2023-03-06T16:57:55.680Z,56.10
2023-03-06T17:00:24.825Z,56.15
2023-03-06T17:02:52.929Z,56.22
2023-03-06T17:05:20.589Z,56.23
2023-03-06T17:07:48.134Z,56.18
2023-03-06T17:10:19.152Z,56.13
2023-03-06T17:12:46.267Z,56.17
2023-03-06T17:15:14.430Z,56.27
2023-03-06T17:17:41.657Z,56.33
2023-03-06T17:20:09.793Z,56.27
2023-03-06T17:22:38.191Z,56.32
2023-03-06T17:25:07.066Z,56.34
2023-03-06T17:27:37.116Z,56.35
2023-03-06T17:30:06.147Z,56.34
2023-03-06T17:32:33.743Z,56.33
2023-03-06T17:35:01.430Z,56.47
2023-03-06T17:37:28.698Z,56.46
2023-03-06T17:39:56.059Z,56.58
2023-03-06T17:42:24.144Z,56.53
2023-03-06T17:44:53.805Z,56.53
2023-03-06T17:47:21.918Z,56.61
2023-03-06T17:49:50.264Z,56.69
2023-03-06T17:52:18.152Z,56.82
2023-03-06T17:54:46.894Z,56.94
2023-03-06T17:57:14.093Z,56.87
2023-03-06T17:59:42.054Z,57.02
2023-03-06T18:02:10.647Z,57.05
2023-03-06T18:04:38.490Z,57.09
2023-03-06T18:07:06.109Z,57.07
2023-03-06T18:09:33.767Z,57.10
2023-03-06T18:12:01.538Z,57.25
2023-03-06T18:14:29.041Z,57.23
2023-03-06T18:16:56.264Z,57.40
2023-03-06T18:19:23.471Z,57.35
2023-03-06T18:21:52.979Z,57.42
2023-03-06T18:24:21.487Z,57.50
2023-03-06T18:26:48.637Z,57.43
2023-03-06T18:29:17.275Z,57.60
2023-03-06T18:31:46.514Z,57.71
2023-03-06T18:34:18.807Z,57.87
2023-03-06T18:36:48.694Z,57.96
2023-03-06T18:39:18.019Z,57.85
2023-03-06T18:41:45.597Z,58.14
2023-03-06T18:44:15.827Z,58.50
2023-03-06T18:46:43.360Z,58.08
2023-03-06T18:49:13.019Z,58.08
2023-03-06T18:51:42.489Z,58.16
2023-03-06T18:54:12.284Z,58.32
2023-03-06T18:56:44.783Z,58.59
2023-03-06T18:59:18.891Z,58.51
2023-03-06T19:01:48.111Z,58.42
2023-03-06T19:04:15.945Z,58.46
2023-03-06T19:06:45.217Z,58.65
2023-03-06T19:09:13.087Z,58.88
2023-03-06T19:11:41.098Z,58.58
2023-03-06T19:14:09.164Z,58.65
2023-03-06T19:16:37.173Z,58.69
2023-03-06T19:19:04.785Z,58.84
2023-03-06T19:21:35.314Z,58.89
2023-03-06T19:24:03.306Z,58.82
2023-03-06T19:26:30.603Z,59.01
2023-03-06T19:29:00.684Z,59.19
2023-03-06T19:31:29.339Z,58.92
2023-03-06T19:33:57.691Z,58.91
2023-03-06T19:36:33.642Z,58.81
2023-03-06T19:39:05.769Z,58.72
2023-03-06T19:41:33.857Z,58.76
2023-03-06T19:44:06.387Z,58.64
2023-03-06T19:46:36.400Z,58.57
2023-03-06T19:49:12.668Z,58.88
2023-03-06T19:51:40.816Z,58.84
2023-03-06T19:54:09.647Z,58.72
2023-03-06T19:56:37.348Z,58.83
2023-03-06T19:59:04.617Z,58.80
2023-03-06T20:01:32.463Z,58.90
2023-03-06T20:04:00.875Z,58.90
2023-03-06T20:06:32.127Z,59.09
2023-03-06T20:09:02.562Z,59.00
2023-03-06T20:11:31.836Z,58.99
2023-03-06T20:14:02.479Z,59.09
2023-03-06T20:16:31.578Z,59.08
2023-03-06T20:19:01.599Z,59.12
2023-03-06T20:21:32.709Z,59.27
2023-03-06T20:24:02.251Z,59.01
2023-03-06T20:26:35.138Z,58.99
2023-03-06T20:29:03.353Z,58.92
2023-03-06T20:31:32.423Z,58.98
2023-03-06T20:34:01.379Z,59.10
2023-03-06T20:36:39.334Z,59.19
2023-03-06T20:39:13.816Z,59.05
2023-03-06T20:41:42.009Z,59.12
2023-03-06T20:44:15.009Z,59.16
2023-03-06T20:46:44.607Z,58.96
2023-03-06T20:49:14.136Z,59.21
2023-03-06T20:51:42.309Z,59.15
2023-03-06T20:54:14.707Z,59.24
2023-03-06T20:56:45.317Z,59.17
2023-03-06T20:59:13.345Z,59.25
2023-03-06T21:01:43.639Z,59.30
2023-03-06T21:04:14.237Z,59.27
2023-03-06T21:06:46.992Z,59.33
2023-03-06T21:09:17.140Z,59.22
2023-03-06T21:11:46.054Z,59.29
2023-03-06T21:14:14.407Z,59.29
2023-03-06T21:16:41.709Z,59.50
2023-03-06T21:19:09.308Z,59.32
2023-03-06T21:21:36.420Z,59.37
2023-03-06T21:24:03.753Z,59.46
2023-03-06T21:26:33.868Z,59.56
2023-03-06T21:29:02.697Z,59.86
2023-03-06T21:31:30.865Z,59.71
2023-03-06T21:33:59.191Z,59.49
2023-03-06T21:36:27.656Z,59.62
2023-03-06T21:38:55.020Z,59.57
2023-03-06T21:41:26.934Z,59.63
2023-03-06T21:43:55.481Z,59.76
2023-03-06T21:46:22.666Z,59.77
2023-03-06T21:48:49.663Z,59.66
2023-03-06T21:51:19.163Z,59.56
2023-03-06T21:53:48.199Z,59.78
2023-03-06T21:56:17.279Z,59.50
2023-03-06T21:58:45.889Z,59.66
2023-03-06T22:01:16.896Z,59.52
2023-03-06T22:03:43.758Z,59.61
2023-03-06T22:06:12.246Z,59.59
2023-03-06T22:08:39.798Z,59.81
2023-03-06T22:11:15.191Z,59.68
2023-03-06T22:13:42.759Z,59.72
2023-03-06T22:16:09.846Z,59.87
2023-03-06T22:18:37.243Z,59.97
2023-03-06T22:21:12.370Z,59.90
2023-03-06T22:23:40.453Z,59.83
2023-03-06T22:26:12.862Z,59.92
2023-03-06T22:28:40.968Z,59.97
2023-03-06T22:31:14.128Z,60.20
2023-03-06T22:33:41.548Z,60.09
2023-03-06T22:36:11.567Z,60.10
2023-03-06T22:38:40.384Z,59.98
2023-03-06T22:41:08.612Z,59.74
2023-03-06T22:43:36.236Z,59.98
2023-03-06T22:46:05.777Z,59.98
2023-03-06T22:48:33.224Z,60.10
2023-03-06T22:51:14.676Z,60.27
2023-03-06T22:53:41.828Z,60.29
2023-03-06T22:56:11.809Z,60.46
2023-03-06T22:58:39.350Z,60.34
2023-03-06T23:01:08.905Z,60.34
2023-03-06T23:03:37.253Z,60.38
2023-03-06T23:06:17.035Z,60.30
2023-03-06T23:08:48.076Z,60.18
2023-03-06T23:11:17.250Z,60.31
2023-03-06T23:13:44.752Z,60.25
2023-03-06T23:16:11.965Z,60.26
2023-03-06T23:18:39.375Z,60.25
2023-03-06T23:21:12.087Z,60.40
2023-03-06T23:23:40.084Z,60.33
2023-03-06T23:26:08.542Z,60.31
2023-03-06T23:28:35.336Z,60.52
2023-03-06T23:31:09.731Z,60.32
2023-03-06T23:33:38.733Z,60.51
2023-03-06T23:36:11.660Z,60.37
2023-03-06T23:38:38.985Z,60.43
2023-03-06T23:41:09.061Z,60.33
2023-03-06T23:43:36.464Z,60.35
2023-03-06T23:46:03.540Z,60.31
2023-03-06T23:48:30.514Z,60.47
2023-03-06T23:50:57.416Z,60.65
2023-03-06T23:53:24.292Z,60.86
2023-03-06T23:55:51.914Z,60.71
2023-03-06T23:58:20.816Z,60.72
